sensor_id;sensor_type;location;lat;lon;timestamp;temperature;humidity
52203;DHT22;38173;52.850;6.970;2022-11-30T00:01:09;6.20;99.90
52203;DHT22;38173;52.850;6.970;2022-11-30T00:03:35;6.20;99.90
52203;DHT22;38173;52.850;6.970;2022-11-30T00:06:07;6.20;99.90
52203;DHT22;38173;52.850;6.970;2022-11-30T00:08:33;6.20;99.90
52203;DHT22;38173;52.850;6.970;2022-11-30T00:10:59;6.20;99.90
52203;DHT22;38173;52.850;6.970;2022-11-30T00:13:25;6.20;99.90
52203;DHT22;38173;52.850;6.970;2022-11-30T00:15:52;6.10;99.90
52203;DHT22;38173;52.850;6.970;2022-11-30T00:18:18;6.20;99.90
52203;DHT22;38173;52.850;6.970;2022-11-30T00:20:43;6.10;99.90
52203;DHT22;38173;52.850;6.970;2022-11-30T00:23:12;6.20;99.90
52203;DHT22;38173;52.850;6.970;2022-11-30T00:25:37;6.20;99.90
52203;DHT22;38173;52.850;6.970;2022-11-30T00:28:03;6.10;99.90
52203;DHT22;38173;52.850;6.970;2022-11-30T00:30:31;6.10;99.90
52203;DHT22;38173;52.850;6.970;2022-11-30T00:32:57;6.20;99.90
52203;DHT22;38173;52.850;6.970;2022-11-30T00:35:22;6.10;99.90
52203;DHT22;38173;52.850;6.970;2022-11-30T00:37:48;6.10;99.90
52203;DHT22;38173;52.850;6.970;2022-11-30T00:40:14;6.10;99.90
52203;DHT22;38173;52.850;6.970;2022-11-30T00:42:40;6.10;99.90
52203;DHT22;38173;52.850;6.970;2022-11-30T00:45:06;6.10;99.90
52203;DHT22;38173;52.850;6.970;2022-11-30T00:47:34;6.10;99.90
52203;DHT22;38173;52.850;6.970;2022-11-30T00:50:02;6.10;99.90
52203;DHT22;38173;52.850;6.970;2022-11-30T00:52:30;6.10;99.90
52203;DHT22;38173;52.850;6.970;2022-11-30T00:54:59;6.10;99.90
52203;DHT22;38173;52.850;6.970;2022-11-30T00:57:24;6.10;99.90
52203;DHT22;38173;52.850;6.970;2022-11-30T00:59:51;6.10;99.90
52203;DHT22;38173;52.850;6.970;2022-11-30T01:02:18;6.10;99.90
52203;DHT22;38173;52.850;6.970;2022-11-30T01:04:44;6.10;99.90
52203;DHT22;38173;52.850;6.970;2022-11-30T01:07:12;6.10;99.90
52203;DHT22;38173;52.850;6.970;2022-11-30T01:09:37;6.10;99.90
52203;DHT22;38173;52.850;6.970;2022-11-30T01:12:03;6.10;99.90
52203;DHT22;38173;52.850;6.970;2022-11-30T01:14:32;6.10;99.90
52203;DHT22;38173;52.850;6.970;2022-11-30T01:16:58;6.00;99.90
52203;DHT22;38173;52.850;6.970;2022-11-30T01:19:24;6.00;99.90
52203;DHT22;38173;52.850;6.970;2022-11-30T01:21:49;6.00;99.90
52203;DHT22;38173;52.850;6.970;2022-11-30T01:24:19;6.00;99.90
52203;DHT22;38173;52.850;6.970;2022-11-30T01:26:45;6.00;99.90
52203;DHT22;38173;52.850;6.970;2022-11-30T01:29:27;6.00;99.90
52203;DHT22;38173;52.850;6.970;2022-11-30T01:31:53;6.00;99.90
52203;DHT22;38173;52.850;6.970;2022-11-30T01:34:24;6.00;99.90
52203;DHT22;38173;52.850;6.970;2022-11-30T01:36:59;6.00;99.90
52203;DHT22;38173;52.850;6.970;2022-11-30T01:39:28;5.90;99.90
52203;DHT22;38173;52.850;6.970;2022-11-30T01:41:56;5.90;99.90
52203;DHT22;38173;52.850;6.970;2022-11-30T01:46:59;5.90;99.90
52203;DHT22;38173;52.850;6.970;2022-11-30T01:49:31;5.90;99.90
52203;DHT22;38173;52.850;6.970;2022-11-30T01:54:53;5.90;99.90
52203;DHT22;38173;52.850;6.970;2022-11-30T01:57:23;5.90;99.90
52203;DHT22;38173;52.850;6.970;2022-11-30T01:59:53;5.90;99.90
52203;DHT22;38173;52.850;6.970;2022-11-30T02:02:30;5.90;99.90
52203;DHT22;38173;52.850;6.970;2022-11-30T02:04:56;5.90;99.90
52203;DHT22;38173;52.850;6.970;2022-11-30T02:07:26;5.90;99.90
52203;DHT22;38173;52.850;6.970;2022-11-30T02:09:52;5.90;99.90
52203;DHT22;38173;52.850;6.970;2022-11-30T02:14:57;5.80;99.90
52203;DHT22;38173;52.850;6.970;2022-11-30T02:17:41;5.80;99.90
52203;DHT22;38173;52.850;6.970;2022-11-30T02:20:26;5.80;99.90
52203;DHT22;38173;52.850;6.970;2022-11-30T02:30:39;5.80;99.90
52203;DHT22;38173;52.850;6.970;2022-11-30T02:33:08;5.80;99.90
52203;DHT22;38173;52.850;6.970;2022-11-30T02:35:36;5.80;99.90
52203;DHT22;38173;52.850;6.970;2022-11-30T02:38:07;5.80;99.90
52203;DHT22;38173;52.850;6.970;2022-11-30T02:40:34;5.70;99.90
52203;DHT22;38173;52.850;6.970;2022-11-30T02:43:00;5.70;99.90
52203;DHT22;38173;52.850;6.970;2022-11-30T02:45:33;5.70;99.90
52203;DHT22;38173;52.850;6.970;2022-11-30T02:48:07;5.80;99.90
52203;DHT22;38173;52.850;6.970;2022-11-30T02:50:55;5.70;99.90
52203;DHT22;38173;52.850;6.970;2022-11-30T02:53:24;5.80;99.90
52203;DHT22;38173;52.850;6.970;2022-11-30T02:55:50;5.80;99.90
52203;DHT22;38173;52.850;6.970;2022-11-30T02:58:21;5.80;99.90
52203;DHT22;38173;52.850;6.970;2022-11-30T03:00:47;5.70;99.90
52203;DHT22;38173;52.850;6.970;2022-11-30T03:03:12;5.70;99.90
52203;DHT22;38173;52.850;6.970;2022-11-30T03:05:41;5.70;99.90
52203;DHT22;38173;52.850;6.970;2022-11-30T03:08:09;5.70;99.90
52203;DHT22;38173;52.850;6.970;2022-11-30T03:10:35;5.70;99.90
52203;DHT22;38173;52.850;6.970;2022-11-30T03:13:01;5.70;99.90
52203;DHT22;38173;52.850;6.970;2022-11-30T03:15:27;5.70;99.90
52203;DHT22;38173;52.850;6.970;2022-11-30T03:17:55;5.70;99.90
52203;DHT22;38173;52.850;6.970;2022-11-30T03:20:20;5.70;99.90
52203;DHT22;38173;52.850;6.970;2022-11-30T03:22:46;5.70;99.90
52203;DHT22;38173;52.850;6.970;2022-11-30T03:25:12;5.70;99.90
52203;DHT22;38173;52.850;6.970;2022-11-30T03:27:37;5.70;99.90
52203;DHT22;38173;52.850;6.970;2022-11-30T03:30:03;5.70;99.90
52203;DHT22;38173;52.850;6.970;2022-11-30T03:32:30;5.70;99.90
52203;DHT22;38173;52.850;6.970;2022-11-30T03:35:04;5.70;99.90
52203;DHT22;38173;52.850;6.970;2022-11-30T03:37:30;5.70;99.90
52203;DHT22;38173;52.850;6.970;2022-11-30T03:39:58;5.70;99.90
52203;DHT22;38173;52.850;6.970;2022-11-30T03:42:24;5.70;99.90
52203;DHT22;38173;52.850;6.970;2022-11-30T03:44:49;5.70;99.90
52203;DHT22;38173;52.850;6.970;2022-11-30T03:47:15;5.70;99.90
52203;DHT22;38173;52.850;6.970;2022-11-30T03:49:41;5.70;99.90
52203;DHT22;38173;52.850;6.970;2022-11-30T03:52:11;5.70;99.90
52203;DHT22;38173;52.850;6.970;2022-11-30T03:54:40;5.70;99.90
52203;DHT22;38173;52.850;6.970;2022-11-30T03:57:06;5.70;99.90
52203;DHT22;38173;52.850;6.970;2022-11-30T03:59:35;5.70;99.90
52203;DHT22;38173;52.850;6.970;2022-11-30T04:02:04;5.70;99.90
52203;DHT22;38173;52.850;6.970;2022-11-30T04:04:29;5.70;99.90
52203;DHT22;38173;52.850;6.970;2022-11-30T04:06:56;5.70;99.90
52203;DHT22;38173;52.850;6.970;2022-11-30T04:09:28;5.70;99.90
52203;DHT22;38173;52.850;6.970;2022-11-30T04:11:54;5.70;99.90
52203;DHT22;38173;52.850;6.970;2022-11-30T04:14:20;5.70;99.90
52203;DHT22;38173;52.850;6.970;2022-11-30T04:16:46;5.70;99.90
52203;DHT22;38173;52.850;6.970;2022-11-30T04:19:11;5.70;99.90
52203;DHT22;38173;52.850;6.970;2022-11-30T04:21:37;5.70;99.90
52203;DHT22;38173;52.850;6.970;2022-11-30T04:24:03;5.70;99.90
52203;DHT22;38173;52.850;6.970;2022-11-30T04:26:28;5.70;99.90
52203;DHT22;38173;52.850;6.970;2022-11-30T04:28:54;5.70;99.90
52203;DHT22;38173;52.850;6.970;2022-11-30T04:31:20;5.70;99.90
52203;DHT22;38173;52.850;6.970;2022-11-30T04:33:45;5.60;99.90
52203;DHT22;38173;52.850;6.970;2022-11-30T04:36:18;5.60;99.90
52203;DHT22;38173;52.850;6.970;2022-11-30T04:38:45;5.60;99.90
52203;DHT22;38173;52.850;6.970;2022-11-30T04:41:11;5.60;99.90
52203;DHT22;38173;52.850;6.970;2022-11-30T04:43:37;5.60;99.90
52203;DHT22;38173;52.850;6.970;2022-11-30T04:46:05;5.60;99.90
52203;DHT22;38173;52.850;6.970;2022-11-30T04:48:31;5.60;99.90
52203;DHT22;38173;52.850;6.970;2022-11-30T04:51:03;5.60;99.90
52203;DHT22;38173;52.850;6.970;2022-11-30T04:53:32;5.60;99.90
52203;DHT22;38173;52.850;6.970;2022-11-30T04:56:05;5.50;99.90
52203;DHT22;38173;52.850;6.970;2022-11-30T04:58:31;5.50;99.90
52203;DHT22;38173;52.850;6.970;2022-11-30T05:01:01;5.50;99.90
52203;DHT22;38173;52.850;6.970;2022-11-30T05:03:27;5.50;99.90
52203;DHT22;38173;52.850;6.970;2022-11-30T05:05:55;5.40;99.90
52203;DHT22;38173;52.850;6.970;2022-11-30T05:08:23;5.50;99.90
52203;DHT22;38173;52.850;6.970;2022-11-30T05:10:53;5.50;99.90
52203;DHT22;38173;52.850;6.970;2022-11-30T05:13:18;5.40;99.90
52203;DHT22;38173;52.850;6.970;2022-11-30T05:15:45;5.40;99.90
52203;DHT22;38173;52.850;6.970;2022-11-30T05:18:11;5.40;99.90
52203;DHT22;38173;52.850;6.970;2022-11-30T05:20:38;5.40;99.90
52203;DHT22;38173;52.850;6.970;2022-11-30T05:23:04;5.40;99.90
52203;DHT22;38173;52.850;6.970;2022-11-30T05:25:31;5.40;99.90
52203;DHT22;38173;52.850;6.970;2022-11-30T05:27:59;5.40;99.90
52203;DHT22;38173;52.850;6.970;2022-11-30T05:30:27;5.40;99.90
52203;DHT22;38173;52.850;6.970;2022-11-30T05:32:53;5.40;99.90
52203;DHT22;38173;52.850;6.970;2022-11-30T05:35:23;5.40;99.90
52203;DHT22;38173;52.850;6.970;2022-11-30T05:37:49;5.40;99.90
52203;DHT22;38173;52.850;6.970;2022-11-30T05:40:15;5.30;99.90
52203;DHT22;38173;52.850;6.970;2022-11-30T05:42:40;5.30;99.90
52203;DHT22;38173;52.850;6.970;2022-11-30T05:45:09;5.30;99.90
52203;DHT22;38173;52.850;6.970;2022-11-30T05:47:35;5.30;99.90
52203;DHT22;38173;52.850;6.970;2022-11-30T05:50:00;5.30;99.90
52203;DHT22;38173;52.850;6.970;2022-11-30T05:52:26;5.30;99.90
52203;DHT22;38173;52.850;6.970;2022-11-30T05:54:53;5.30;99.90
52203;DHT22;38173;52.850;6.970;2022-11-30T05:57:20;5.30;99.90
52203;DHT22;38173;52.850;6.970;2022-11-30T05:59:49;5.30;99.90
52203;DHT22;38173;52.850;6.970;2022-11-30T06:02:17;5.30;99.90
52203;DHT22;38173;52.850;6.970;2022-11-30T06:04:43;5.30;99.90
52203;DHT22;38173;52.850;6.970;2022-11-30T06:07:11;5.30;99.90
52203;DHT22;38173;52.850;6.970;2022-11-30T06:09:42;5.30;99.90
52203;DHT22;38173;52.850;6.970;2022-11-30T06:12:08;5.20;99.90
52203;DHT22;38173;52.850;6.970;2022-11-30T06:14:38;5.20;99.90
52203;DHT22;38173;52.850;6.970;2022-11-30T06:17:03;5.20;99.90
52203;DHT22;38173;52.850;6.970;2022-11-30T06:19:50;5.20;99.90
52203;DHT22;38173;52.850;6.970;2022-11-30T06:22:15;5.20;99.90
52203;DHT22;38173;52.850;6.970;2022-11-30T06:24:40;5.30;99.90
52203;DHT22;38173;52.850;6.970;2022-11-30T06:27:06;5.30;99.90
52203;DHT22;38173;52.850;6.970;2022-11-30T06:29:31;5.30;99.90
52203;DHT22;38173;52.850;6.970;2022-11-30T06:31:57;5.30;99.90
52203;DHT22;38173;52.850;6.970;2022-11-30T06:34:23;5.30;99.90
52203;DHT22;38173;52.850;6.970;2022-11-30T06:36:49;5.30;99.90
52203;DHT22;38173;52.850;6.970;2022-11-30T06:39:14;5.30;99.90
52203;DHT22;38173;52.850;6.970;2022-11-30T06:41:40;5.30;99.90
52203;DHT22;38173;52.850;6.970;2022-11-30T06:44:09;5.30;99.90
52203;DHT22;38173;52.850;6.970;2022-11-30T06:46:35;5.30;99.90
52203;DHT22;38173;52.850;6.970;2022-11-30T06:49:00;5.30;99.90
52203;DHT22;38173;52.850;6.970;2022-11-30T06:51:26;5.30;99.90
52203;DHT22;38173;52.850;6.970;2022-11-30T06:53:51;5.30;99.90
52203;DHT22;38173;52.850;6.970;2022-11-30T06:56:17;5.30;99.90
52203;DHT22;38173;52.850;6.970;2022-11-30T06:58:43;5.30;99.90
52203;DHT22;38173;52.850;6.970;2022-11-30T07:01:10;5.30;99.90
52203;DHT22;38173;52.850;6.970;2022-11-30T07:03:37;5.30;99.90
52203;DHT22;38173;52.850;6.970;2022-11-30T07:06:07;5.30;99.90
52203;DHT22;38173;52.850;6.970;2022-11-30T07:08:32;5.30;99.90
52203;DHT22;38173;52.850;6.970;2022-11-30T07:10:58;5.30;99.90
52203;DHT22;38173;52.850;6.970;2022-11-30T07:13:23;5.30;99.90
52203;DHT22;38173;52.850;6.970;2022-11-30T07:15:49;5.30;99.90
52203;DHT22;38173;52.850;6.970;2022-11-30T07:18:15;5.30;99.90
52203;DHT22;38173;52.850;6.970;2022-11-30T07:20:41;5.30;99.90
52203;DHT22;38173;52.850;6.970;2022-11-30T07:23:06;5.30;99.90
52203;DHT22;38173;52.850;6.970;2022-11-30T07:25:51;5.30;99.90
52203;DHT22;38173;52.850;6.970;2022-11-30T07:28:36;5.30;99.90
52203;DHT22;38173;52.850;6.970;2022-11-30T07:31:15;5.20;99.90
52203;DHT22;38173;52.850;6.970;2022-11-30T07:33:42;5.30;99.90
52203;DHT22;38173;52.850;6.970;2022-11-30T07:36:08;5.20;99.90
52203;DHT22;38173;52.850;6.970;2022-11-30T07:38:34;5.30;99.90
52203;DHT22;38173;52.850;6.970;2022-11-30T07:40:59;5.20;99.90
52203;DHT22;38173;52.850;6.970;2022-11-30T07:43:26;5.20;99.90
52203;DHT22;38173;52.850;6.970;2022-11-30T07:45:52;5.20;99.90
52203;DHT22;38173;52.850;6.970;2022-11-30T07:48:18;5.20;99.90
52203;DHT22;38173;52.850;6.970;2022-11-30T07:50:44;5.30;99.90
52203;DHT22;38173;52.850;6.970;2022-11-30T07:53:09;5.20;99.90
52203;DHT22;38173;52.850;6.970;2022-11-30T07:55:35;5.20;99.90
52203;DHT22;38173;52.850;6.970;2022-11-30T07:58:00;5.20;99.90
52203;DHT22;38173;52.850;6.970;2022-11-30T08:00:26;5.30;99.90
52203;DHT22;38173;52.850;6.970;2022-11-30T08:02:51;5.30;99.90
52203;DHT22;38173;52.850;6.970;2022-11-30T08:05:17;5.30;99.90
52203;DHT22;38173;52.850;6.970;2022-11-30T08:07:43;5.30;99.90
52203;DHT22;38173;52.850;6.970;2022-11-30T08:10:10;5.20;99.90
52203;DHT22;38173;52.850;6.970;2022-11-30T08:12:36;5.30;99.90
52203;DHT22;38173;52.850;6.970;2022-11-30T08:15:01;5.20;99.90
52203;DHT22;38173;52.850;6.970;2022-11-30T08:17:27;5.20;99.90
52203;DHT22;38173;52.850;6.970;2022-11-30T08:19:52;5.20;99.90
52203;DHT22;38173;52.850;6.970;2022-11-30T08:22:18;5.20;99.90
52203;DHT22;38173;52.850;6.970;2022-11-30T08:24:56;5.20;99.90
52203;DHT22;38173;52.850;6.970;2022-11-30T08:27:21;5.20;99.90
52203;DHT22;38173;52.850;6.970;2022-11-30T08:29:47;5.20;99.90
52203;DHT22;38173;52.850;6.970;2022-11-30T08:32:12;5.20;99.90
52203;DHT22;38173;52.850;6.970;2022-11-30T08:34:38;5.20;99.90
52203;DHT22;38173;52.850;6.970;2022-11-30T08:37:03;5.20;99.90
52203;DHT22;38173;52.850;6.970;2022-11-30T08:39:29;5.20;99.90
52203;DHT22;38173;52.850;6.970;2022-11-30T08:41:58;5.30;99.90
52203;DHT22;38173;52.850;6.970;2022-11-30T08:44:23;5.20;99.90
52203;DHT22;38173;52.850;6.970;2022-11-30T08:46:49;5.20;99.90
52203;DHT22;38173;52.850;6.970;2022-11-30T08:49:14;5.20;99.90
52203;DHT22;38173;52.850;6.970;2022-11-30T08:51:40;5.30;99.90
52203;DHT22;38173;52.850;6.970;2022-11-30T08:54:05;5.20;99.90
52203;DHT22;38173;52.850;6.970;2022-11-30T08:56:31;5.30;99.90
52203;DHT22;38173;52.850;6.970;2022-11-30T08:58:57;5.30;99.90
52203;DHT22;38173;52.850;6.970;2022-11-30T09:01:24;5.30;99.90
52203;DHT22;38173;52.850;6.970;2022-11-30T09:03:53;5.30;99.90
52203;DHT22;38173;52.850;6.970;2022-11-30T09:06:21;5.30;99.90
52203;DHT22;38173;52.850;6.970;2022-11-30T09:08:47;5.30;99.90
52203;DHT22;38173;52.850;6.970;2022-11-30T09:11:14;5.40;99.90
52203;DHT22;38173;52.850;6.970;2022-11-30T09:13:41;5.40;99.90
52203;DHT22;38173;52.850;6.970;2022-11-30T09:16:07;5.40;99.90
52203;DHT22;38173;52.850;6.970;2022-11-30T09:18:33;5.30;99.90
52203;DHT22;38173;52.850;6.970;2022-11-30T09:21:04;5.30;99.90
52203;DHT22;38173;52.850;6.970;2022-11-30T09:23:30;5.30;99.90
52203;DHT22;38173;52.850;6.970;2022-11-30T09:25:56;5.40;99.90
52203;DHT22;38173;52.850;6.970;2022-11-30T09:28:22;5.40;99.90
52203;DHT22;38173;52.850;6.970;2022-11-30T09:30:48;5.40;99.90
52203;DHT22;38173;52.850;6.970;2022-11-30T09:33:13;5.40;99.90
52203;DHT22;38173;52.850;6.970;2022-11-30T09:35:39;5.40;99.90
52203;DHT22;38173;52.850;6.970;2022-11-30T09:38:05;5.40;99.90
52203;DHT22;38173;52.850;6.970;2022-11-30T09:40:30;5.50;99.90
52203;DHT22;38173;52.850;6.970;2022-11-30T09:45:29;5.50;99.90
52203;DHT22;38173;52.850;6.970;2022-11-30T09:50:53;5.50;99.90
52203;DHT22;38173;52.850;6.970;2022-11-30T09:53:21;5.50;99.90
52203;DHT22;38173;52.850;6.970;2022-11-30T09:55:49;5.60;99.90
52203;DHT22;38173;52.850;6.970;2022-11-30T10:01:00;5.60;99.90
52203;DHT22;38173;52.850;6.970;2022-11-30T10:03:26;5.60;99.90
52203;DHT22;38173;52.850;6.970;2022-11-30T10:05:59;5.60;99.90
52203;DHT22;38173;52.850;6.970;2022-11-30T10:08:36;5.60;99.90
52203;DHT22;38173;52.850;6.970;2022-11-30T10:11:15;5.60;99.90
52203;DHT22;38173;52.850;6.970;2022-11-30T10:16:44;5.70;99.90
52203;DHT22;38173;52.850;6.970;2022-11-30T10:24:31;5.80;99.90
52203;DHT22;38173;52.850;6.970;2022-11-30T10:26:58;5.80;99.90
52203;DHT22;38173;52.850;6.970;2022-11-30T10:29:33;5.80;99.90
52203;DHT22;38173;52.850;6.970;2022-11-30T10:32:08;5.70;99.90
52203;DHT22;38173;52.850;6.970;2022-11-30T10:34:36;5.70;99.90
52203;DHT22;38173;52.850;6.970;2022-11-30T10:39:41;5.70;99.90
52203;DHT22;38173;52.850;6.970;2022-11-30T10:42:13;5.80;99.90
52203;DHT22;38173;52.850;6.970;2022-11-30T10:44:41;5.80;99.90
52203;DHT22;38173;52.850;6.970;2022-11-30T10:47:16;5.80;99.90
52203;DHT22;38173;52.850;6.970;2022-11-30T10:49:48;5.90;99.90
52203;DHT22;38173;52.850;6.970;2022-11-30T10:52:15;5.90;99.90
52203;DHT22;38173;52.850;6.970;2022-11-30T10:54:42;5.90;99.90
52203;DHT22;38173;52.850;6.970;2022-11-30T10:57:08;5.90;99.90
52203;DHT22;38173;52.850;6.970;2022-11-30T11:01:59;5.90;99.90
52203;DHT22;38173;52.850;6.970;2022-11-30T11:04:25;5.90;99.90
52203;DHT22;38173;52.850;6.970;2022-11-30T11:11:58;5.80;99.90
52203;DHT22;38173;52.850;6.970;2022-11-30T11:14:25;5.90;99.90
52203;DHT22;38173;52.850;6.970;2022-11-30T11:17:01;5.90;99.90
52203;DHT22;38173;52.850;6.970;2022-11-30T11:21:57;5.80;99.90
52203;DHT22;38173;52.850;6.970;2022-11-30T11:24:25;5.90;99.90
52203;DHT22;38173;52.850;6.970;2022-11-30T11:26:52;5.80;99.90
52203;DHT22;38173;52.850;6.970;2022-11-30T11:29:29;5.80;99.90
52203;DHT22;38173;52.850;6.970;2022-11-30T11:32:05;5.80;99.90
52203;DHT22;38173;52.850;6.970;2022-11-30T11:34:34;5.80;99.90
52203;DHT22;38173;52.850;6.970;2022-11-30T11:37:06;5.80;99.90
52203;DHT22;38173;52.850;6.970;2022-11-30T11:39:32;5.80;99.90
52203;DHT22;38173;52.850;6.970;2022-11-30T11:41:58;5.90;99.90
52203;DHT22;38173;52.850;6.970;2022-11-30T11:44:25;5.90;99.90
52203;DHT22;38173;52.850;6.970;2022-11-30T11:46:56;5.80;99.90
52203;DHT22;38173;52.850;6.970;2022-11-30T11:49:23;5.80;99.90
52203;DHT22;38173;52.850;6.970;2022-11-30T11:51:58;5.80;99.90
52203;DHT22;38173;52.850;6.970;2022-11-30T11:54:33;5.90;99.90
52203;DHT22;38173;52.850;6.970;2022-11-30T11:57:00;5.80;99.90
52203;DHT22;38173;52.850;6.970;2022-11-30T12:04:54;5.80;99.90
52203;DHT22;38173;52.850;6.970;2022-11-30T12:09:55;5.90;99.90
52203;DHT22;38173;52.850;6.970;2022-11-30T12:12:23;5.90;99.90
52203;DHT22;38173;52.850;6.970;2022-11-30T12:14:48;5.90;99.90
52203;DHT22;38173;52.850;6.970;2022-11-30T12:17:17;5.90;99.90
52203;DHT22;38173;52.850;6.970;2022-11-30T12:22:33;5.90;99.90
52203;DHT22;38173;52.850;6.970;2022-11-30T12:30:05;6.00;99.90
52203;DHT22;38173;52.850;6.970;2022-11-30T12:35:12;6.00;99.90
52203;DHT22;38173;52.850;6.970;2022-11-30T12:42:45;6.00;99.90
52203;DHT22;38173;52.850;6.970;2022-11-30T12:45:14;6.00;99.90
52203;DHT22;38173;52.850;6.970;2022-11-30T12:50:31;6.00;99.90
52203;DHT22;38173;52.850;6.970;2022-11-30T12:53:33;6.00;99.90
52203;DHT22;38173;52.850;6.970;2022-11-30T12:56:01;6.10;99.90
52203;DHT22;38173;52.850;6.970;2022-11-30T13:03:40;6.00;99.90
52203;DHT22;38173;52.850;6.970;2022-11-30T13:06:20;6.00;99.90
52203;DHT22;38173;52.850;6.970;2022-11-30T13:08:59;6.00;99.90
52203;DHT22;38173;52.850;6.970;2022-11-30T13:11:31;6.00;99.90
52203;DHT22;38173;52.850;6.970;2022-11-30T13:13:58;6.00;99.90
52203;DHT22;38173;52.850;6.970;2022-11-30T13:16:25;5.90;99.90
52203;DHT22;38173;52.850;6.970;2022-11-30T13:18:51;5.90;99.90
52203;DHT22;38173;52.850;6.970;2022-11-30T13:31:34;5.80;99.90
52203;DHT22;38173;52.850;6.970;2022-11-30T13:34:02;5.80;99.90
52203;DHT22;38173;52.850;6.970;2022-11-30T13:36:46;5.80;99.90
52203;DHT22;38173;52.850;6.970;2022-11-30T13:41:41;5.70;99.90
52203;DHT22;38173;52.850;6.970;2022-11-30T13:46:52;5.70;99.90
52203;DHT22;38173;52.850;6.970;2022-11-30T13:49:22;5.60;99.90
52203;DHT22;38173;52.850;6.970;2022-11-30T13:51:48;5.60;99.90
52203;DHT22;38173;52.850;6.970;2022-11-30T13:56:58;5.60;99.90
52203;DHT22;38173;52.850;6.970;2022-11-30T14:01:50;5.60;99.90
52203;DHT22;38173;52.850;6.970;2022-11-30T14:09:16;5.60;99.90
52203;DHT22;38173;52.850;6.970;2022-11-30T14:14:45;5.60;99.90
52203;DHT22;38173;52.850;6.970;2022-11-30T14:17:24;5.60;99.90
52203;DHT22;38173;52.850;6.970;2022-11-30T14:20:08;5.50;99.90
52203;DHT22;38173;52.850;6.970;2022-11-30T14:22:34;5.50;99.90
52203;DHT22;38173;52.850;6.970;2022-11-30T14:25:03;5.50;99.90
52203;DHT22;38173;52.850;6.970;2022-11-30T14:27:36;5.50;99.90
52203;DHT22;38173;52.850;6.970;2022-11-30T14:30:02;5.50;99.90
52203;DHT22;38173;52.850;6.970;2022-11-30T14:32:39;5.50;99.90
52203;DHT22;38173;52.850;6.970;2022-11-30T14:35:08;5.40;99.90
52203;DHT22;38173;52.850;6.970;2022-11-30T14:37:40;5.40;99.90
52203;DHT22;38173;52.850;6.970;2022-11-30T14:40:07;5.40;99.90
52203;DHT22;38173;52.850;6.970;2022-11-30T14:42:33;5.40;99.90
52203;DHT22;38173;52.850;6.970;2022-11-30T14:44:59;5.40;99.90
52203;DHT22;38173;52.850;6.970;2022-11-30T14:47:32;5.40;99.90
52203;DHT22;38173;52.850;6.970;2022-11-30T14:49:59;5.40;99.90
52203;DHT22;38173;52.850;6.970;2022-11-30T14:55:24;5.40;99.90
52203;DHT22;38173;52.850;6.970;2022-11-30T15:00:39;5.40;99.90
52203;DHT22;38173;52.850;6.970;2022-11-30T15:03:14;5.40;99.90
52203;DHT22;38173;52.850;6.970;2022-11-30T15:05:41;5.40;99.90
52203;DHT22;38173;52.850;6.970;2022-11-30T15:08:09;5.30;99.90
52203;DHT22;38173;52.850;6.970;2022-11-30T15:10:35;5.30;99.90
52203;DHT22;38173;52.850;6.970;2022-11-30T15:13:00;5.30;99.90
52203;DHT22;38173;52.850;6.970;2022-11-30T15:15:26;5.30;99.90
52203;DHT22;38173;52.850;6.970;2022-11-30T15:18:14;5.30;99.90
52203;DHT22;38173;52.850;6.970;2022-11-30T15:20:56;5.30;99.90
52203;DHT22;38173;52.850;6.970;2022-11-30T15:23:24;5.30;99.90
52203;DHT22;38173;52.850;6.970;2022-11-30T15:25:55;5.30;99.90
52203;DHT22;38173;52.850;6.970;2022-11-30T15:28:22;5.30;99.90
52203;DHT22;38173;52.850;6.970;2022-11-30T15:30:50;5.30;99.90
52203;DHT22;38173;52.850;6.970;2022-11-30T15:33:18;5.30;99.90
52203;DHT22;38173;52.850;6.970;2022-11-30T15:35:45;5.30;99.90
52203;DHT22;38173;52.850;6.970;2022-11-30T15:38:24;5.30;99.90
52203;DHT22;38173;52.850;6.970;2022-11-30T15:40:51;5.30;99.90
52203;DHT22;38173;52.850;6.970;2022-11-30T15:43:24;5.30;99.90
52203;DHT22;38173;52.850;6.970;2022-11-30T15:45:54;5.30;99.90
52203;DHT22;38173;52.850;6.970;2022-11-30T15:50:51;5.20;99.90
52203;DHT22;38173;52.850;6.970;2022-11-30T15:53:31;5.20;99.90
52203;DHT22;38173;52.850;6.970;2022-11-30T15:56:04;5.30;99.90
52203;DHT22;38173;52.850;6.970;2022-11-30T15:58:31;5.20;99.90
52203;DHT22;38173;52.850;6.970;2022-11-30T16:01:09;5.20;99.90
52203;DHT22;38173;52.850;6.970;2022-11-30T16:06:18;5.20;99.90
52203;DHT22;38173;52.850;6.970;2022-11-30T16:08:45;5.20;99.90
52203;DHT22;38173;52.850;6.970;2022-11-30T16:11:10;5.20;99.90
52203;DHT22;38173;52.850;6.970;2022-11-30T16:13:36;5.20;99.90
52203;DHT22;38173;52.850;6.970;2022-11-30T16:16:01;5.20;99.90
52203;DHT22;38173;52.850;6.970;2022-11-30T16:18:34;5.20;99.90
52203;DHT22;38173;52.850;6.970;2022-11-30T16:21:00;5.20;99.90
52203;DHT22;38173;52.850;6.970;2022-11-30T16:23:26;5.20;99.90
52203;DHT22;38173;52.850;6.970;2022-11-30T16:25:52;5.20;99.90
52203;DHT22;38173;52.850;6.970;2022-11-30T16:28:18;5.20;99.90
52203;DHT22;38173;52.850;6.970;2022-11-30T16:30:44;5.20;99.90
52203;DHT22;38173;52.850;6.970;2022-11-30T16:33:14;5.30;99.90
52203;DHT22;38173;52.850;6.970;2022-11-30T16:38:25;5.20;99.90
52203;DHT22;38173;52.850;6.970;2022-11-30T16:40:51;5.30;99.90
52203;DHT22;38173;52.850;6.970;2022-11-30T16:43:18;5.30;99.90
52203;DHT22;38173;52.850;6.970;2022-11-30T16:45:44;5.30;99.90
52203;DHT22;38173;52.850;6.970;2022-11-30T16:48:11;5.30;99.90
52203;DHT22;38173;52.850;6.970;2022-11-30T16:50:37;5.30;99.90
52203;DHT22;38173;52.850;6.970;2022-11-30T16:53:02;5.30;99.90
52203;DHT22;38173;52.850;6.970;2022-11-30T16:55:29;5.30;99.90
52203;DHT22;38173;52.850;6.970;2022-11-30T16:57:56;5.30;99.90
52203;DHT22;38173;52.850;6.970;2022-11-30T17:00:21;5.30;99.90
52203;DHT22;38173;52.850;6.970;2022-11-30T17:02:51;5.30;99.90
52203;DHT22;38173;52.850;6.970;2022-11-30T17:05:18;5.30;99.90
52203;DHT22;38173;52.850;6.970;2022-11-30T17:07:44;5.30;99.90
52203;DHT22;38173;52.850;6.970;2022-11-30T17:10:09;5.30;99.90
52203;DHT22;38173;52.850;6.970;2022-11-30T17:12:35;5.30;99.90
52203;DHT22;38173;52.850;6.970;2022-11-30T17:15:01;5.20;99.90
52203;DHT22;38173;52.850;6.970;2022-11-30T17:17:27;5.20;99.90
52203;DHT22;38173;52.850;6.970;2022-11-30T17:19:52;5.20;99.90
52203;DHT22;38173;52.850;6.970;2022-11-30T17:22:18;5.30;99.90
52203;DHT22;38173;52.850;6.970;2022-11-30T17:24:43;5.30;99.90
52203;DHT22;38173;52.850;6.970;2022-11-30T17:27:09;5.30;99.90
52203;DHT22;38173;52.850;6.970;2022-11-30T17:29:36;5.30;99.90
52203;DHT22;38173;52.850;6.970;2022-11-30T17:32:02;5.30;99.90
52203;DHT22;38173;52.850;6.970;2022-11-30T17:34:27;5.20;99.90
52203;DHT22;38173;52.850;6.970;2022-11-30T17:36:53;5.30;99.90
52203;DHT22;38173;52.850;6.970;2022-11-30T17:39:21;5.30;99.90
52203;DHT22;38173;52.850;6.970;2022-11-30T17:41:47;5.30;99.90
52203;DHT22;38173;52.850;6.970;2022-11-30T17:44:12;5.20;99.90
52203;DHT22;38173;52.850;6.970;2022-11-30T17:46:38;5.20;99.90
52203;DHT22;38173;52.850;6.970;2022-11-30T17:49:04;5.30;99.90